Time;durP1;ratioP1;P1;durP2;ratioP2;P2;SDS_P1;SDS_P2;PMS_P1;PMS_P2;Temp;Humidity;BMP_temperature;BMP_pressure;BME280_temperature;BME280_humidity;BME280_pressure;Samples;Min_cycle;Max_cycle;Signal;HPM_P1;HPM_P2
2021/06/22 00:00:23;;;;;;;8.27;2.30;;;13.20;99.90;;;;;;5027146;28;20088;-74
2021/06/22 00:02:50;;;;;;;3.22;1.80;;;13.20;99.90;;;;;;5027010;28;20037;-74
2021/06/22 00:05:17;;;;;;;7.82;1.92;;;13.30;99.90;;;;;;5026400;28;20097;-73
2021/06/22 00:07:46;;;;;;;6.45;2.50;;;13.30;99.90;;;;;;5026699;28;20026;-74
2021/06/22 00:10:13;;;;;;;2.25;1.30;;;13.40;99.90;;;;;;5026269;28;20105;-73
2021/06/22 00:12:38;;;;;;;3.90;1.85;;;13.30;99.90;;;;;;5041719;28;20108;-74
2021/06/22 00:15:06;;;;;;;3.33;2.03;;;13.30;99.90;;;;;;5026552;28;20541;-74
2021/06/22 00:17:32;;;;;;;4.28;1.98;;;13.30;99.90;;;;;;5050801;28;20392;-74
2021/06/22 00:19:57;;;;;;;6.20;2.28;;;13.30;99.90;;;;;;5065063;28;20048;-73
2021/06/22 00:22:23;;;;;;;3.03;1.88;;;13.30;99.90;;;;;;5066323;28;20028;-75
2021/06/22 00:24:48;;;;;;;4.35;2.20;;;13.30;99.90;;;;;;5064745;28;20032;-74
2021/06/22 00:27:14;;;;;;;3.72;1.63;;;13.30;99.90;;;;;;5064697;28;20036;-73
2021/06/22 00:29:43;;;;;;;3.08;1.70;;;13.40;99.90;;;;;;5066132;28;20084;-73
2021/06/22 00:32:10;;;;;;;6.05;2.13;;;13.40;99.90;;;;;;5065657;28;20025;-74
2021/06/22 00:34:36;;;;;;;2.75;1.70;;;13.30;99.90;;;;;;5064530;28;20062;-73
2021/06/22 00:37:02;;;;;;;3.45;1.70;;;13.30;99.90;;;;;;5065864;28;20021;-75
2021/06/22 00:39:28;;;;;;;6.65;2.03;;;13.40;99.90;;;;;;5065747;28;20092;-76
2021/06/22 00:41:53;;;;;;;4.18;2.13;;;13.30;99.90;;;;;;5065932;28;20048;-75
2021/06/22 00:44:19;;;;;;;3.83;1.90;;;13.40;99.90;;;;;;5065850;28;20025;-75
2021/06/22 00:46:44;;;;;;;6.22;2.28;;;13.40;99.90;;;;;;5064313;28;20032;-75
2021/06/22 00:49:10;;;;;;;3.20;1.75;;;13.40;99.90;;;;;;5063771;28;20106;-75
2021/06/22 00:51:36;;;;;;;9.18;2.30;;;13.40;99.90;;;;;;5065548;28;20060;-76
2021/06/22 00:54:02;;;;;;;2.25;1.75;;;13.40;99.90;;;;;;5064273;28;20037;-72
2021/06/22 00:56:31;;;;;;;9.90;1.60;;;13.40;99.90;;;;;;5065854;28;20025;-74
2021/06/22 00:58:58;;;;;;;11.80;1.92;;;13.40;99.90;;;;;;5065674;28;20047;-74
2021/06/22 01:01:24;;;;;;;5.95;1.85;;;13.40;99.90;;;;;;5064022;28;20025;-76
2021/06/22 01:03:49;;;;;;;5.00;2.00;;;13.50;99.90;;;;;;5065238;28;20040;-73
2021/06/22 01:06:15;;;;;;;4.00;1.90;;;13.40;99.90;;;;;;5064229;28;20029;-74
2021/06/22 01:08:41;;;;;;;2.97;2.15;;;13.40;99.90;;;;;;5055032;28;20057;-72
2021/06/22 01:11:07;;;;;;;4.43;1.90;;;13.40;99.90;;;;;;5060605;28;20037;-73
2021/06/22 01:13:33;;;;;;;9.55;2.88;;;13.40;99.90;;;;;;5045499;28;20093;-73
2021/06/22 01:15:58;;;;;;;4.55;1.75;;;13.40;99.90;;;;;;5045095;28;20037;-73
2021/06/22 01:18:24;;;;;;;4.13;1.92;;;13.40;99.90;;;;;;5045370;28;20033;-74
2021/06/22 01:20:57;;;;;;;5.68;2.05;;;13.50;99.90;;;;;;5045364;28;20407;-74
2021/06/22 01:23:23;;;;;;;5.55;2.20;;;13.40;99.90;;;;;;5061733;28;20025;-73
2021/06/22 01:25:49;;;;;;;3.78;2.28;;;13.40;99.90;;;;;;5045572;28;20053;-72
2021/06/22 01:28:14;;;;;;;3.30;1.92;;;13.40;99.90;;;;;;5060406;28;20025;-73
2021/06/22 01:30:40;;;;;;;4.88;2.22;;;13.40;99.90;;;;;;5044617;28;20025;-72
2021/06/22 01:33:06;;;;;;;9.00;2.40;;;13.50;99.90;;;;;;5045130;28;20390;-73
2021/06/22 01:35:32;;;;;;;8.38;2.47;;;13.40;99.90;;;;;;5044917;28;20036;-72
2021/06/22 01:38:04;;;;;;;4.78;2.05;;;13.40;99.90;;;;;;5044354;28;20025;-72
2021/06/22 01:40:30;;;;;;;5.50;2.00;;;13.40;99.90;;;;;;5044964;28;20029;-73
2021/06/22 01:43:00;;;;;;;3.53;2.15;;;13.40;99.90;;;;;;5060167;28;20030;-73
2021/06/22 01:45:27;;;;;;;6.22;2.10;;;13.40;99.90;;;;;;5044878;28;20021;-71
2021/06/22 01:47:52;;;;;;;6.97;1.98;;;13.40;99.90;;;;;;5045219;28;20025;-72
2021/06/22 01:50:18;;;;;;;9.85;2.65;;;13.40;99.90;;;;;;5059759;28;20132;-72
2021/06/22 01:52:44;;;;;;;5.63;2.20;;;13.40;99.90;;;;;;5044299;28;20485;-71
2021/06/22 01:57:59;;;;;;;6.85;2.30;;;13.40;99.90;;;;;;5044752;28;20497;-72
2021/06/22 02:00:25;;;;;;;5.65;2.20;;;13.40;99.90;;;;;;5044052;28;20049;-74
2021/06/22 02:02:50;;;;;;;5.32;1.90;;;13.40;99.90;;;;;;5044743;28;20029;-73
2021/06/22 02:05:16;;;;;;;10.52;3.33;;;13.40;99.90;;;;;;5044341;28;20166;-71
2021/06/22 02:07:42;;;;;;;5.60;2.40;;;13.40;99.90;;;;;;5044312;28;20039;-72
2021/06/22 02:10:09;;;;;;;7.70;1.60;;;13.40;99.90;;;;;;5042993;28;20029;-72
2021/06/22 02:12:34;;;;;;;8.18;2.30;;;13.40;99.90;;;;;;5044144;28;20034;-72
2021/06/22 02:15:00;;;;;;;3.63;2.28;;;13.40;99.90;;;;;;5044235;28;20044;-72
2021/06/22 02:17:27;;;;;;;12.38;2.33;;;13.40;99.90;;;;;;5044693;28;20033;-73
2021/06/22 02:19:52;;;;;;;7.20;3.03;;;13.40;99.90;;;;;;5059920;28;20101;-72
2021/06/22 02:22:18;;;;;;;4.68;2.38;;;13.40;99.90;;;;;;5044599;28;20034;-72
2021/06/22 02:24:44;;;;;;;13.65;2.42;;;13.40;99.90;;;;;;5044148;28;20092;-73
2021/06/22 02:27:30;;;;;;;7.53;2.53;;;13.40;99.90;;;;;;5044063;28;20458;-72
2021/06/22 02:29:56;;;;;;;11.88;2.25;;;13.50;99.90;;;;;;5044576;28;20045;-74
2021/06/22 02:32:24;;;;;;;6.15;3.08;;;13.50;99.90;;;;;;5043791;28;20026;-71
2021/06/22 02:34:50;;;;;;;6.82;2.28;;;13.50;99.90;;;;;;5044448;28;20040;-72
2021/06/22 02:37:16;;;;;;;4.70;2.20;;;13.50;99.90;;;;;;5043527;28;20034;-72
2021/06/22 02:39:43;;;;;;;3.67;2.45;;;13.50;99.90;;;;;;5043885;28;20030;-73
2021/06/22 02:42:09;;;;;;;4.93;2.50;;;13.50;99.90;;;;;;5044174;28;20032;-71
2021/06/22 02:44:34;;;;;;;10.65;2.70;;;13.50;99.90;;;;;;5059261;28;20026;-72
2021/06/22 02:47:00;;;;;;;7.93;2.70;;;13.50;99.90;;;;;;5043931;28;20084;-73
2021/06/22 02:49:26;;;;;;;2.08;1.60;;;13.50;99.90;;;;;;5044350;28;20025;-72
2021/06/22 02:51:52;;;;;;;4.72;2.47;;;13.50;99.90;;;;;;5043492;28;20049;-71
2021/06/22 02:54:18;;;;;;;8.70;1.98;;;13.50;99.90;;;;;;5059251;28;20045;-73
2021/06/22 02:56:43;;;;;;;10.00;2.50;;;13.50;99.90;;;;;;5043868;28;20040;-72
2021/06/22 02:59:09;;;;;;;7.28;2.63;;;13.50;99.90;;;;;;5042571;28;20029;-73
2021/06/22 03:01:34;;;;;;;8.95;2.72;;;13.50;99.90;;;;;;5059174;28;20061;-73
2021/06/22 03:04:00;;;;;;;5.07;2.50;;;13.40;99.90;;;;;;5044317;28;20050;-75
2021/06/22 03:06:26;;;;;;;7.45;2.05;;;13.40;99.90;;;;;;5043910;28;20033;-75
2021/06/22 03:08:51;;;;;;;4.05;2.20;;;13.40;99.90;;;;;;5042585;28;20036;-73
2021/06/22 03:11:17;;;;;;;5.30;2.33;;;13.40;99.90;;;;;;5059930;28;20033;-73
2021/06/22 03:13:43;;;;;;;8.93;2.25;;;13.40;99.90;;;;;;5047236;28;20095;-71
2021/06/22 03:16:08;;;;;;;4.80;2.67;;;13.40;99.90;;;;;;5047104;28;20103;-75
2021/06/22 03:18:34;;;;;;;9.68;2.15;;;13.30;99.90;;;;;;5047436;28;20064;-74
2021/06/22 03:20:59;;;;;;;3.50;1.90;;;13.30;99.90;;;;;;5047099;28;20039;-75
2021/06/22 03:23:26;;;;;;;8.55;2.63;;;13.30;99.90;;;;;;5062910;28;20097;-72
2021/06/22 03:25:51;;;;;;;5.13;2.05;;;13.30;99.90;;;;;;5047621;28;20083;-73
2021/06/22 03:28:17;;;;;;;5.53;2.08;;;13.30;99.90;;;;;;5047101;28;20033;-75
2021/06/22 03:30:43;;;;;;;3.97;2.17;;;13.30;99.90;;;;;;5062642;28;20029;-73
2021/06/22 03:33:10;;;;;;;3.47;2.08;;;13.30;99.90;;;;;;5047167;28;20042;-72
2021/06/22 03:35:36;;;;;;;6.47;1.73;;;13.40;99.90;;;;;;5063719;28;20047;-70
2021/06/22 03:38:03;;;;;;;7.18;2.47;;;13.30;99.90;;;;;;5047308;28;20381;-72
2021/06/22 03:40:28;;;;;;;4.88;1.90;;;13.30;99.90;;;;;;5047278;28;20040;-72
2021/06/22 03:42:54;;;;;;;2.78;1.70;;;13.40;99.90;;;;;;5045467;28;20116;-72
2021/06/22 03:45:20;;;;;;;5.05;2.90;;;13.40;99.90;;;;;;5046083;28;20033;-73
2021/06/22 03:47:46;;;;;;;3.97;1.67;;;13.40;99.90;;;;;;5046768;28;20033;-73
2021/06/22 03:50:12;;;;;;;4.78;2.30;;;13.50;99.90;;;;;;5046609;28;20049;-71
2021/06/22 03:52:38;;;;;;;2.85;1.95;;;13.40;99.90;;;;;;5046741;28;20025;-72
2021/06/22 03:55:26;;;;;;;9.10;2.47;;;13.40;99.90;;;;;;5046388;28;20048;-74
2021/06/22 03:57:57;;;;;;;8.00;2.85;;;13.40;99.90;;;;;;5047351;28;20021;-72
2021/06/22 04:00:23;;;;;;;3.75;1.83;;;13.40;99.90;;;;;;5046810;28;20037;-74
2021/06/22 04:02:49;;;;;;;5.25;1.60;;;13.30;99.90;;;;;;5046594;28;20030;-74
2021/06/22 04:05:15;;;;;;;4.60;2.20;;;13.30;99.90;;;;;;5062101;28;20021;-71
2021/06/22 04:07:41;;;;;;;4.90;2.58;;;13.30;99.90;;;;;;5046598;28;20089;-73
2021/06/22 04:10:08;;;;;;;1.88;1.30;;;13.30;99.90;;;;;;5046299;28;20044;-73
2021/06/22 04:12:34;;;;;;;6.20;1.83;;;13.30;99.90;;;;;;5046646;28;20090;-71
2021/06/22 04:14:59;;;;;;;6.78;1.55;;;13.30;99.90;;;;;;5046191;28;20094;-74
2021/06/22 04:17:25;;;;;;;4.05;2.17;;;13.30;99.90;;;;;;5045158;28;20033;-71
2021/06/22 04:19:50;;;;;;;4.40;2.17;;;13.40;99.90;;;;;;5046520;28;20374;-73
2021/06/22 04:22:16;;;;;;;4.22;1.95;;;13.40;99.90;;;;;;5045991;28;20165;-73
2021/06/22 04:24:42;;;;;;;8.98;2.28;;;13.40;99.90;;;;;;5045602;28;20108;-74
2021/06/22 04:27:07;;;;;;;10.00;1.70;;;13.40;99.90;;;;;;5046325;28;20112;-75
2021/06/22 04:29:33;;;;;;;2.45;1.42;;;13.40;99.90;;;;;;5045925;28;20037;-70
2021/06/22 04:31:58;;;;;;;7.38;1.52;;;13.40;99.90;;;;;;5046113;28;20087;-73
2021/06/22 04:34:24;;;;;;;5.03;2.03;;;13.40;99.90;;;;;;5046365;28;20049;-74
2021/06/22 04:36:50;;;;;;;8.65;2.42;;;13.40;99.90;;;;;;5045937;28;20041;-74
2021/06/22 04:39:16;;;;;;;5.38;2.03;;;13.40;99.90;;;;;;5061484;28;20037;-75
2021/06/22 04:41:41;;;;;;;3.35;2.13;;;13.40;99.90;;;;;;5061241;28;20041;-74
2021/06/22 04:44:07;;;;;;;2.47;1.38;;;13.50;99.90;;;;;;5052605;28;20461;-74
2021/06/22 04:46:32;;;;;;;4.75;2.00;;;13.50;99.90;;;;;;5050422;28;20037;-75
2021/06/22 04:48:58;;;;;;;2.70;1.52;;;13.60;99.90;;;;;;5061073;28;20056;-76
2021/06/22 04:51:24;;;;;;;4.32;1.35;;;13.60;99.90;;;;;;5063660;28;20056;-74
2021/06/22 04:53:50;;;;;;;18.38;2.70;;;13.60;99.90;;;;;;5048593;28;20456;-76
2021/06/22 04:56:16;;;;;;;3.35;1.65;;;13.60;99.90;;;;;;5045538;28;20025;-75
2021/06/22 04:58:42;;;;;;;3.03;1.48;;;13.60;99.90;;;;;;5042845;28;20022;-75
2021/06/22 05:01:08;;;;;;;2.17;1.40;;;13.60;99.90;;;;;;5043323;28;20359;-78
2021/06/22 05:03:35;;;;;;;8.88;1.38;;;13.60;99.90;;;;;;5044821;28;20044;-76
2021/06/22 05:06:01;;;;;;;2.03;1.02;;;13.60;99.90;;;;;;5044707;28;20021;-75
2021/06/22 05:08:27;;;;;;;10.63;1.63;;;13.70;99.90;;;;;;5045035;28;20031;-75
2021/06/22 05:10:54;;;;;;;15.85;1.63;;;13.70;99.90;;;;;;5044170;28;20037;-75
2021/06/22 05:13:21;;;;;;;3.60;1.60;;;13.70;99.90;;;;;;5045095;28;20076;-78
2021/06/22 05:15:46;;;;;;;8.77;1.95;;;13.80;99.90;;;;;;5060521;28;20025;-74
2021/06/22 05:18:12;;;;;;;5.05;1.70;;;13.70;99.90;;;;;;5045196;28;20036;-75
2021/06/22 05:20:37;;;;;;;9.80;1.92;;;13.70;99.90;;;;;;5046334;28;20021;-75
2021/06/22 05:23:03;;;;;;;7.82;1.65;;;13.70;99.90;;;;;;5051984;28;20045;-72
2021/06/22 05:25:29;;;;;;;6.15;2.03;;;13.70;99.90;;;;;;5060563;28;20037;-74
2021/06/22 05:27:55;;;;;;;4.25;1.58;;;13.80;99.90;;;;;;5055393;28;20094;-72
2021/06/22 05:30:21;;;;;;;6.65;1.90;;;13.90;99.90;;;;;;5061981;28;20424;-71
2021/06/22 05:32:46;;;;;;;5.97;1.50;;;14.00;99.90;;;;;;5043119;28;20044;-72
2021/06/22 05:35:13;;;;;;;2.30;1.55;;;14.00;99.90;;;;;;5043302;28;20049;-74
2021/06/22 05:37:39;;;;;;;4.35;2.05;;;14.10;99.90;;;;;;5055106;28;20021;-75
2021/06/22 05:40:09;;;;;;;3.53;1.55;;;14.10;99.90;;;;;;5064827;28;20084;-74
2021/06/22 05:42:34;;;;;;;3.60;2.05;;;14.20;99.90;;;;;;5063211;28;20024;-72
2021/06/22 05:45:00;;;;;;;2.35;1.05;;;14.30;99.90;;;;;;5064917;28;20109;-73
2021/06/22 05:47:25;;;;;;;11.85;1.90;;;14.20;99.90;;;;;;5065309;28;20032;-71
2021/06/22 05:49:51;;;;;;;4.32;1.63;;;14.30;99.90;;;;;;5058710;28;20101;-71
2021/06/22 05:52:17;;;;;;;3.17;1.58;;;14.30;99.90;;;;;;5044939;28;20055;-73
2021/06/22 05:54:43;;;;;;;3.22;1.63;;;14.40;99.90;;;;;;5044377;28;20045;-71
2021/06/22 05:57:08;;;;;;;9.80;2.00;;;14.40;99.90;;;;;;5044472;28;20026;-73
2021/06/22 05:59:34;;;;;;;2.45;1.67;;;14.50;99.90;;;;;;5044696;28;20021;-73
2021/06/22 06:02:00;;;;;;;3.78;1.25;;;14.50;99.90;;;;;;5044577;28;20021;-72
2021/06/22 06:04:30;;;;;;;3.13;1.80;;;14.50;99.90;;;;;;5044740;28;20029;-76
2021/06/22 06:06:56;;;;;;;6.90;1.60;;;14.50;99.90;;;;;;5048865;28;20035;-72
2021/06/22 06:09:23;;;;;;;5.53;1.48;;;14.50;99.90;;;;;;5064431;28;20028;-72
2021/06/22 06:11:50;;;;;;;3.53;1.33;;;14.40;99.90;;;;;;5064380;28;20028;-73
2021/06/22 06:14:16;;;;;;;2.25;1.05;;;14.40;99.90;;;;;;5063749;28;20037;-74
2021/06/22 06:16:41;;;;;;;4.25;1.52;;;14.40;99.90;;;;;;5063787;28;20031;-74
2021/06/22 06:19:07;;;;;;;12.00;3.08;;;14.50;99.90;;;;;;5064338;28;20033;-73
2021/06/22 06:21:35;;;;;;;11.80;1.95;;;14.50;99.90;;;;;;5063752;28;20049;-74
2021/06/22 06:24:03;;;;;;;10.70;1.58;;;14.50;99.90;;;;;;5044788;28;20041;-74
2021/06/22 06:26:33;;;;;;;5.75;1.90;;;14.60;99.90;;;;;;5039675;28;20478;-74
2021/06/22 06:29:08;;;;;;;2.42;1.27;;;14.70;99.90;;;;;;5024260;28;20018;-77
2021/06/22 06:31:34;;;;;;;4.72;1.30;;;14.70;99.90;;;;;;5024464;28;20086;-71
2021/06/22 06:34:00;;;;;;;10.80;1.98;;;14.70;99.90;;;;;;5024538;28;20080;-76
2021/06/22 06:36:34;;;;;;;10.63;1.70;;;14.80;99.90;;;;;;5024253;28;20040;-74
2021/06/22 06:39:00;;;;;;;2.67;1.58;;;14.90;99.90;;;;;;5024021;28;20030;-74
2021/06/22 06:41:25;;;;;;;2.38;1.58;;;15.00;99.90;;;;;;5024502;28;20029;-75
2021/06/22 06:43:51;;;;;;;2.65;1.58;;;15.10;99.90;;;;;;5023876;28;20521;-76
2021/06/22 06:46:17;;;;;;;3.47;1.58;;;15.00;99.90;;;;;;5025553;28;20042;-74
2021/06/22 06:48:42;;;;;;;7.65;1.77;;;15.00;99.90;;;;;;5028434;28;20037;-74
2021/06/22 06:51:08;;;;;;;6.03;1.50;;;15.10;99.90;;;;;;5053682;28;20059;-77
2021/06/22 06:53:34;;;;;;;3.03;1.52;;;15.10;99.90;;;;;;5065911;28;20037;-75
2021/06/22 06:55:59;;;;;;;23.77;2.10;;;15.10;99.90;;;;;;5068139;28;20120;-76
2021/06/22 06:58:25;;;;;;;1.92;0.73;;;15.20;99.90;;;;;;5063468;28;20032;-76
2021/06/22 07:00:51;;;;;;;1.50;1.05;;;15.10;99.90;;;;;;5048688;28;20083;-76
2021/06/22 07:03:16;;;;;;;5.50;1.65;;;15.10;99.90;;;;;;5063046;28;20040;-74
2021/06/22 07:05:42;;;;;;;3.00;1.58;;;15.20;99.90;;;;;;5063055;28;20148;-76
2021/06/22 07:08:08;;;;;;;2.97;1.40;;;15.30;99.90;;;;;;5046045;28;20153;-74
2021/06/22 07:10:36;;;;;;;2.08;1.13;;;15.40;99.90;;;;;;5047195;28;20033;-74
2021/06/22 07:13:04;;;;;;;3.85;1.63;;;15.50;99.90;;;;;;5057749;28;20023;-75
2021/06/22 07:15:31;;;;;;;4.55;1.70;;;15.50;99.90;;;;;;5066926;28;20025;-75
2021/06/22 07:17:58;;;;;;;4.57;1.65;;;15.70;99.90;;;;;;5046999;28;20037;-73
2021/06/22 07:20:25;;;;;;;9.98;2.08;;;15.70;99.90;;;;;;5047518;28;20048;-72
2021/06/22 07:22:50;;;;;;;2.65;1.25;;;15.70;99.90;;;;;;5047210;28;20069;-75
2021/06/22 07:25:18;;;;;;;1.70;1.08;;;15.80;99.90;;;;;;5054605;28;20463;-72
2021/06/22 07:27:47;;;;;;;1.88;1.15;;;15.80;99.90;;;;;;5064363;28;20510;-74
2021/06/22 07:30:15;;;;;;;4.82;2.13;;;15.90;99.90;;;;;;5063805;28;20022;-73
2021/06/22 07:32:41;;;;;;;5.00;1.55;;;15.90;99.90;;;;;;5026732;28;20045;-73
2021/06/22 07:35:07;;;;;;;9.32;2.15;;;16.10;99.90;;;;;;5053258;28;20389;-72
2021/06/22 07:37:32;;;;;;;2.47;1.40;;;16.30;99.90;;;;;;5066283;28;20089;-72
2021/06/22 07:39:58;;;;;;;1.40;1.13;;;16.40;99.90;;;;;;5066604;28;20025;-71
2021/06/22 07:42:24;;;;;;;4.63;1.65;;;16.70;99.90;;;;;;5067158;28;20029;-72
2021/06/22 07:44:49;;;;;;;3.80;1.20;;;16.80;99.90;;;;;;5047434;28;20038;-73
2021/06/22 07:47:18;;;;;;;7.25;1.83;;;17.00;99.90;;;;;;5047004;28;20033;-72
2021/06/22 07:49:44;;;;;;;5.30;1.50;;;17.10;99.90;;;;;;5045328;28;20045;-71
2021/06/22 07:52:10;;;;;;;2.75;1.42;;;17.20;99.90;;;;;;5046603;28;20030;-73
2021/06/22 07:54:36;;;;;;;10.20;2.13;;;17.10;99.90;;;;;;5061934;28;20088;-72
2021/06/22 07:57:02;;;;;;;9.20;1.77;;;16.90;99.90;;;;;;5065577;28;20033;-70
2021/06/22 07:59:28;;;;;;;3.58;2.20;;;17.00;99.90;;;;;;5045625;28;20061;-73
2021/06/22 08:01:54;;;;;;;3.05;1.90;;;16.90;99.90;;;;;;5060910;28;20021;-74
2021/06/22 08:04:20;;;;;;;8.45;2.17;;;17.00;99.90;;;;;;5067431;28;20083;-72
2021/06/22 08:06:47;;;;;;;5.15;1.77;;;16.90;99.90;;;;;;5066620;28;20024;-72
2021/06/22 08:09:12;;;;;;;4.05;2.05;;;16.80;99.90;;;;;;5049533;28;20053;-72
2021/06/22 08:11:38;;;;;;;2.05;0.90;;;16.80;99.90;;;;;;5056476;28;20017;-72
2021/06/22 08:14:04;;;;;;;4.30;1.85;;;16.80;99.90;;;;;;5055980;28;20052;-72
2021/06/22 08:16:29;;;;;;;3.17;1.48;;;16.80;99.90;;;;;;5065660;28;20033;-72
2021/06/22 08:18:55;;;;;;;8.68;3.05;;;16.80;99.90;;;;;;5046247;28;20032;-74
2021/06/22 08:21:21;;;;;;;3.38;1.85;;;16.80;99.90;;;;;;5046296;28;20044;-70
2021/06/22 08:23:46;;;;;;;3.90;1.70;;;16.90;99.90;;;;;;5046134;28;20060;-75
2021/06/22 08:26:12;;;;;;;2.63;1.60;;;16.90;99.90;;;;;;5045794;28;20034;-74
2021/06/22 08:28:38;;;;;;;4.38;1.25;;;16.90;99.90;;;;;;5044741;28;20430;-72
2021/06/22 08:31:07;;;;;;;5.47;1.55;;;16.90;99.90;;;;;;5046465;28;20025;-73
2021/06/22 08:33:34;;;;;;;7.93;2.10;;;16.80;99.90;;;;;;5043896;28;20413;-75
2021/06/22 08:35:59;;;;;;;4.07;1.45;;;16.80;99.90;;;;;;5046080;28;20129;-71
2021/06/22 08:38:26;;;;;;;1.65;1.02;;;16.90;99.90;;;;;;5045973;28;20720;-69
2021/06/22 08:40:52;;;;;;;12.85;1.63;;;17.00;99.90;;;;;;5044277;28;20025;-73
2021/06/22 08:43:18;;;;;;;3.22;1.50;;;17.20;99.90;;;;;;5046797;28;20037;-74
2021/06/22 08:45:45;;;;;;;4.53;1.63;;;17.30;99.90;;;;;;5059054;28;20033;-72
2021/06/22 08:48:11;;;;;;;4.32;1.10;;;17.30;99.90;;;;;;5059662;28;20035;-70
2021/06/22 08:50:39;;;;;;;4.38;1.42;;;17.30;99.90;;;;;;5052934;28;20149;-71
2021/06/22 08:53:06;;;;;;;1.33;1.08;;;17.30;99.90;;;;;;5065589;28;20112;-71
2021/06/22 08:55:33;;;;;;;4.22;1.48;;;17.20;99.90;;;;;;5057379;28;20028;-74
2021/06/22 08:58:05;;;;;;;2.88;1.70;;;17.20;99.90;;;;;;5045836;28;20022;-71
2021/06/22 09:00:38;;;;;;;6.63;1.52;;;17.30;99.90;;;;;;5045629;28;20092;-71
2021/06/22 09:03:13;;;;;;;3.92;2.13;;;17.40;99.90;;;;;;5060710;28;20028;-75
2021/06/22 09:05:40;;;;;;;3.63;1.80;;;17.50;99.90;;;;;;5045690;28;20017;-71
2021/06/22 09:08:26;;;;;;;1.25;1.00;;;17.70;99.90;;;;;;5049559;28;20025;-71
2021/06/22 09:11:14;;;;;;;5.85;2.00;;;17.70;99.90;;;;;;5064077;28;20035;-72
2021/06/22 09:13:42;;;;;;;4.60;1.40;;;17.90;99.90;;;;;;5062910;28;20052;-72
2021/06/22 09:16:14;;;;;;;2.35;1.20;;;18.00;99.90;;;;;;5056206;28;20029;-72
2021/06/22 09:18:44;;;;;;;9.15;2.08;;;18.10;99.90;;;;;;5065080;28;20017;-72
2021/06/22 09:21:24;;;;;;;2.50;1.10;;;18.40;99.90;;;;;;5025398;28;20022;-75
2021/06/22 09:23:56;;;;;;;1.35;0.90;;;18.40;99.90;;;;;;5026360;28;20061;-76
2021/06/22 09:26:21;;;;;;;1.40;1.30;;;18.30;99.90;;;;;;5065518;28;20057;-75
2021/06/22 09:28:49;;;;;;;5.47;1.95;;;18.00;99.90;;;;;;5064769;28;20071;-75
2021/06/22 09:31:20;;;;;;;7.57;2.28;;;17.90;99.90;;;;;;5063590;28;20033;-72
2021/06/22 09:33:54;;;;;;;3.15;2.13;;;17.80;99.90;;;;;;5064728;28;20041;-73
2021/06/22 09:36:27;;;;;;;;;;;17.80;99.90;;;;;;5065144;28;20405;-72
2021/06/22 09:38:58;;;;;;;3.10;1.52;;;17.70;99.90;;;;;;5058480;28;19951;-72
2021/06/22 09:41:31;;;;;;;11.20;2.22;;;17.80;99.90;;;;;;5045181;28;20036;-72
2021/06/22 09:44:04;;;;;;;4.65;1.90;;;18.00;99.90;;;;;;5044701;28;20021;-69
2021/06/22 09:46:34;;;;;;;2.70;1.42;;;18.00;99.90;;;;;;5044845;28;20105;-70
2021/06/22 09:49:01;;;;;;;6.88;1.80;;;17.90;99.90;;;;;;5044609;28;20034;-74
2021/06/22 09:51:37;;;;;;;2.88;1.35;;;17.80;99.90;;;;;;5044601;28;20046;-73
2021/06/22 09:54:27;;;;;;;7.15;1.50;;;17.80;99.90;;;;;;5059969;28;20045;-73
2021/06/22 09:56:58;;;;;;;2.15;1.27;;;17.80;99.90;;;;;;5044492;28;20025;-76
2021/06/22 09:59:26;;;;;;;6.47;2.65;;;17.90;99.90;;;;;;5050531;28;20036;-76
2021/06/22 10:01:52;;;;;;;2.20;1.48;;;18.00;99.90;;;;;;5064194;28;20036;-73
2021/06/22 10:04:19;;;;;;;2.38;1.40;;;18.30;99.90;;;;;;5064004;28;20477;-72
2021/06/22 10:06:54;;;;;;;2.80;1.52;;;18.60;99.90;;;;;;5058760;28;20033;-76
2021/06/22 10:09:31;;;;;;;7.72;1.92;;;18.90;99.90;;;;;;5060620;28;20085;-73
2021/06/22 10:12:08;;;;;;;5.10;1.65;;;18.90;99.90;;;;;;5064171;28;20025;-74
2021/06/22 10:14:43;;;;;;;3.97;1.50;;;18.80;99.90;;;;;;5064615;28;20037;-74
2021/06/22 10:17:13;;;;;;;5.00;1.55;;;18.60;99.90;;;;;;5064207;28;20028;-73
2021/06/22 10:19:45;;;;;;;5.22;1.73;;;18.30;99.90;;;;;;5064856;28;20126;-76
2021/06/22 10:22:12;;;;;;;3.08;1.70;;;18.20;99.90;;;;;;5064154;28;20029;-75
2021/06/22 10:24:42;;;;;;;5.20;1.40;;;18.00;99.90;;;;;;5062657;28;20036;-76
2021/06/22 10:27:08;;;;;;;3.97;1.48;;;18.10;99.90;;;;;;5064163;28;20056;-73
2021/06/22 10:29:35;;;;;;;14.13;1.50;;;18.40;99.90;;;;;;5064494;28;20025;-76
2021/06/22 10:32:01;;;;;;;2.92;1.20;;;18.40;99.90;;;;;;5064036;28;20033;-73
2021/06/22 10:34:27;;;;;;;2.47;1.52;;;18.40;99.90;;;;;;5062667;28;20033;-73
2021/06/22 10:37:12;;;;;;;3.85;2.03;;;18.60;99.90;;;;;;5063939;28;20090;-74
2021/06/22 10:39:56;;;;;;;8.23;1.98;;;19.00;99.90;;;;;;5063886;28;20138;-74
2021/06/22 10:42:23;;;;;;;2.05;1.38;;;19.00;99.90;;;;;;5064564;28;20358;-75
2021/06/22 10:45:01;;;;;;;2.05;1.30;;;19.00;99.90;;;;;;5063966;28;20492;-73
2021/06/22 10:47:41;;;;;;;1.55;0.95;;;18.90;99.90;;;;;;5063959;28;20029;-72
2021/06/22 10:50:21;;;;;;;6.22;1.83;;;18.90;99.90;;;;;;5052120;28;20054;-76
2021/06/22 10:53:02;;;;;;;8.23;0.95;;;18.80;99.90;;;;;;5039354;28;20088;-74
2021/06/22 10:55:28;;;;;;;3.95;1.15;;;18.70;99.90;;;;;;5023147;28;20073;-74
2021/06/22 10:57:54;;;;;;;2.30;1.10;;;18.50;99.90;;;;;;5041040;28;20377;-72
2021/06/22 11:00:20;;;;;;;7.75;1.95;;;18.40;99.90;;;;;;5043197;28;20053;-74
2021/06/22 11:03:06;;;;;;;2.75;1.00;;;18.40;99.90;;;;;;5044029;28;20461;-73
2021/06/22 11:05:40;;;;;;;2.08;1.27;;;18.40;99.90;;;;;;5045415;28;20096;-72
2021/06/22 11:08:11;;;;;;;13.18;2.03;;;18.50;99.90;;;;;;5046643;28;20062;-73
2021/06/22 11:10:38;;;;;;;1.67;1.15;;;18.60;99.90;;;;;;5037598;28;20022;-72
2021/06/22 11:13:04;;;;;;;5.35;1.65;;;18.70;99.90;;;;;;5061928;28;20032;-71
2021/06/22 11:15:51;;;;;;;2.17;1.20;;;19.00;99.90;;;;;;5063695;28;20055;-75
2021/06/22 11:18:18;;;;;;;5.38;1.48;;;19.60;99.90;;;;;;5063165;28;20053;-75
2021/06/22 11:20:45;;;;;;;4.65;1.25;;;20.20;99.90;;;;;;5062945;28;20076;-73
2021/06/22 11:23:13;;;;;;;4.25;1.27;;;20.80;99.90;;;;;;5062584;28;20020;-75
2021/06/22 11:26:04;;;;;;;4.07;1.38;;;21.00;99.90;;;;;;5061589;28;20033;-72
2021/06/22 11:28:56;;;;;;;4.63;1.60;;;20.90;99.90;;;;;;5060575;28;20064;-75
2021/06/22 11:31:54;;;;;;;7.63;1.17;;;20.80;99.90;;;;;;5044076;28;20034;-73
2021/06/22 11:34:32;;;;;;;2.22;1.02;;;20.50;99.90;;;;;;5029278;28;20068;-77
2021/06/22 11:37:04;;;;;;;7.97;1.83;;;20.30;99.90;;;;;;5064607;28;20481;-75
2021/06/22 11:39:31;;;;;;;7.63;1.65;;;20.10;99.90;;;;;;5056027;28;20034;-75
2021/06/22 11:42:09;;;;;;;3.45;1.40;;;19.90;99.90;;;;;;5052527;28;20104;-75
2021/06/22 11:44:38;;;;;;;3.38;1.50;;;19.90;99.90;;;;;;5066920;28;20025;-72
2021/06/22 11:47:14;;;;;;;5.45;1.00;;;19.80;99.90;;;;;;5065092;28;20025;-72
2021/06/22 11:49:41;;;;;;;2.58;1.55;;;19.80;99.90;;;;;;5044116;28;20022;-73
2021/06/22 11:52:10;;;;;;;5.55;1.42;;;20.00;99.90;;;;;;5044978;28;20049;-72
2021/06/22 11:54:52;;;;;;;5.32;1.52;;;20.10;99.90;;;;;;5045320;28;20042;-72
2021/06/22 11:57:20;;;;;;;2.97;1.02;;;20.20;99.90;;;;;;5045398;28;20041;-71
2021/06/22 11:59:46;;;;;;;3.50;1.35;;;20.20;99.90;;;;;;5045362;28;20085;-75
2021/06/22 12:02:14;;;;;;;10.40;1.45;;;20.10;99.90;;;;;;5046131;28;20037;-73
2021/06/22 12:04:41;;;;;;;2.83;1.25;;;20.20;99.90;;;;;;5063754;28;20039;-72
2021/06/22 12:07:10;;;;;;;7.57;1.75;;;20.40;99.90;;;;;;5066416;28;20050;-74
2021/06/22 12:09:39;;;;;;;2.33;1.05;;;20.90;99.90;;;;;;5063611;28;20025;-75
2021/06/22 12:12:05;;;;;;;1.80;1.10;;;21.10;99.90;;;;;;5046310;28;20037;-72
2021/06/22 12:14:31;;;;;;;6.10;1.67;;;21.20;99.90;;;;;;5026697;28;20042;-73
2021/06/22 12:17:12;;;;;;;4.32;1.58;;;21.20;99.90;;;;;;5042345;28;20029;-73
2021/06/22 12:19:38;;;;;;;3.13;1.40;;;21.00;99.90;;;;;;5046220;28;20035;-72
2021/06/22 12:22:04;;;;;;;1.70;1.17;;;20.90;99.90;;;;;;5046310;28;20049;-73
2021/06/22 12:24:30;;;;;;;1.70;0.85;;;20.70;99.90;;;;;;5046027;28;20017;-73
2021/06/22 12:27:02;;;;;;;1.77;1.20;;;20.50;99.90;;;;;;5055883;28;20042;-73
2021/06/22 12:29:32;;;;;;;3.55;1.33;;;20.30;99.90;;;;;;5066464;28;20032;-72
2021/06/22 12:32:08;;;;;;;2.28;1.08;;;20.20;99.90;;;;;;5066222;28;20029;-72
2021/06/22 12:34:37;;;;;;;2.53;1.52;;;20.10;99.90;;;;;;5065937;28;20393;-73
2021/06/22 12:37:08;;;;;;;4.43;1.17;;;20.50;99.90;;;;;;5066703;28;20024;-73
2021/06/22 12:39:38;;;;;;;2.92;0.80;;;21.10;99.90;;;;;;5066034;28;20055;-73
2021/06/22 12:42:08;;;;;;;3.40;1.83;;;21.50;99.90;;;;;;5065865;28;20060;-74
2021/06/22 12:44:36;;;;;;;4.43;1.08;;;21.40;99.90;;;;;;5065418;28;20032;-73
2021/06/22 12:47:06;;;;;;;6.68;2.13;;;21.20;99.90;;;;;;5065604;28;20029;-76
2021/06/22 12:49:33;;;;;;;2.55;1.35;;;20.90;99.90;;;;;;5062150;28;20561;-73
2021/06/22 12:52:03;;;;;;;3.38;1.30;;;20.90;99.90;;;;;;5045340;28;20033;-74